createdAt,value
2023-02-14T00:01:23.175Z,4.94
2023-02-14T00:03:50.499Z,5.00
2023-02-14T00:06:17.872Z,4.94
2023-02-14T00:08:45.561Z,4.78
2023-02-14T00:11:14.130Z,4.59
2023-02-14T00:14:01.707Z,4.71
2023-02-14T00:16:29.118Z,4.70
2023-02-14T00:19:05.606Z,4.66
2023-02-14T00:21:37.513Z,4.63
2023-02-14T00:24:07.046Z,4.62
2023-02-14T00:26:34.644Z,4.63
2023-02-14T00:29:02.055Z,4.61
2023-02-14T00:31:29.536Z,4.69
2023-02-14T00:33:57.124Z,4.69
2023-02-14T00:36:24.523Z,4.74
2023-02-14T00:38:52.360Z,4.84
2023-02-14T00:41:19.725Z,4.76
2023-02-14T00:43:48.941Z,4.74
2023-02-14T00:46:18.738Z,4.75
2023-02-14T00:48:46.361Z,4.77
2023-02-14T00:51:14.262Z,4.70
2023-02-14T00:53:41.910Z,4.73
2023-02-14T00:56:09.308Z,4.71
2023-02-14T00:58:36.761Z,4.62
2023-02-14T01:01:04.311Z,4.40
2023-02-14T01:03:31.888Z,4.36
2023-02-14T01:05:59.348Z,4.43
2023-02-14T01:08:26.754Z,4.37
2023-02-14T01:10:54.168Z,4.36
2023-02-14T01:13:22.195Z,4.30
2023-02-14T01:15:51.585Z,4.34
2023-02-14T01:18:19.669Z,4.28
2023-02-14T01:20:49.114Z,4.28
2023-02-14T01:23:16.478Z,4.39
2023-02-14T01:25:43.782Z,4.38
2023-02-14T01:28:11.289Z,4.30
2023-02-14T01:30:40.556Z,4.24
2023-02-14T01:33:10.520Z,4.36
2023-02-14T01:35:38.770Z,4.28
2023-02-14T01:38:06.259Z,4.21
2023-02-14T01:40:33.568Z,4.23
2023-02-14T01:43:00.906Z,4.25
2023-02-14T01:45:29.853Z,4.22
2023-02-14T01:47:58.772Z,4.05
2023-02-14T01:50:38.533Z,4.09
2023-02-14T01:53:24.703Z,4.26
2023-02-14T01:56:03.254Z,4.11
2023-02-14T01:58:35.619Z,4.21
2023-02-14T02:01:04.264Z,4.29
2023-02-14T02:03:42.530Z,4.38
2023-02-14T02:06:15.251Z,4.34
2023-02-14T02:09:00.686Z,4.25
2023-02-14T02:11:29.711Z,4.22
2023-02-14T02:13:57.010Z,4.26
2023-02-14T02:16:50.358Z,4.25
2023-02-14T02:19:36.459Z,4.17
2023-02-14T02:22:10.223Z,4.17
2023-02-14T02:24:48.724Z,4.21
2023-02-14T02:27:25.967Z,4.20
2023-02-14T02:30:05.692Z,3.99
2023-02-14T02:33:03.648Z,3.94
2023-02-14T02:35:55.503Z,3.92
2023-02-14T02:38:43.915Z,3.83
2023-02-14T02:41:32.662Z,3.78
2023-02-14T02:43:59.976Z,3.80
2023-02-14T02:46:49.964Z,3.72
2023-02-14T02:49:46.233Z,3.67
2023-02-14T02:52:35.405Z,3.72
2023-02-14T02:55:11.144Z,3.67
2023-02-14T02:57:41.652Z,3.64
2023-02-14T03:00:12.695Z,3.62
2023-02-14T03:03:08.156Z,3.58
2023-02-14T03:05:36.832Z,3.66
2023-02-14T03:08:05.802Z,3.61
2023-02-14T03:10:38.044Z,3.57
2023-02-14T03:13:29.872Z,3.51
2023-02-14T03:16:20.296Z,3.45
2023-02-14T03:19:02.572Z,3.74
2023-02-14T03:21:51.021Z,3.80
2023-02-14T03:24:45.153Z,3.89
2023-02-14T03:27:21.860Z,4.02
2023-02-14T03:29:58.860Z,4.09
2023-02-14T03:32:42.408Z,4.08
2023-02-14T03:35:39.388Z,3.82
2023-02-14T03:38:18.981Z,3.99
2023-02-14T03:40:58.277Z,4.02
2023-02-14T03:43:33.892Z,3.98
2023-02-14T03:46:10.779Z,4.18
2023-02-14T03:48:40.449Z,4.23
2023-02-14T03:51:11.633Z,4.08
2023-02-14T03:53:44.477Z,4.09
2023-02-14T03:56:14.791Z,4.18
2023-02-14T03:58:51.781Z,4.13
2023-02-14T04:01:24.371Z,4.02
2023-02-14T04:03:55.547Z,4.03
2023-02-14T04:06:23.404Z,3.80
2023-02-14T04:08:50.842Z,3.83
2023-02-14T04:11:18.338Z,3.86
2023-02-14T04:13:45.692Z,3.95
2023-02-14T04:16:13.089Z,3.88
2023-02-14T04:18:58.720Z,3.73
2023-02-14T04:21:26.246Z,3.48
2023-02-14T04:23:53.636Z,3.52
2023-02-14T04:26:26.833Z,3.40
2023-02-14T04:28:57.106Z,3.19
2023-02-14T04:31:24.579Z,3.10
2023-02-14T04:33:52.014Z,2.97
2023-02-14T04:36:19.332Z,3.07
2023-02-14T04:38:46.649Z,2.76
2023-02-14T04:41:14.039Z,2.93
2023-02-14T04:43:41.473Z,2.97
2023-02-14T04:46:08.862Z,2.94
2023-02-14T04:48:36.243Z,3.05
2023-02-14T04:51:03.906Z,3.22
2023-02-14T04:53:31.310Z,3.35
2023-02-14T04:55:58.651Z,3.38
2023-02-14T04:58:26.076Z,3.41
2023-02-14T05:00:53.577Z,3.58
2023-02-14T05:03:21.180Z,3.48
2023-02-14T05:05:48.548Z,3.45
2023-02-14T05:08:15.978Z,3.46
2023-02-14T05:10:44.004Z,3.48
2023-02-14T05:13:11.386Z,3.33
2023-02-14T05:15:38.845Z,3.19
2023-02-14T05:18:06.392Z,3.14
2023-02-14T05:20:33.803Z,3.11
2023-02-14T05:23:03.432Z,2.98
2023-02-14T05:25:31.308Z,3.16
2023-02-14T05:27:58.642Z,3.07
2023-02-14T05:30:26.701Z,3.06
2023-02-14T05:32:54.596Z,2.85
2023-02-14T05:35:21.958Z,2.94
2023-02-14T05:37:49.469Z,2.87
2023-02-14T05:40:16.845Z,2.87
2023-02-14T05:42:44.652Z,2.66
2023-02-14T05:45:12.500Z,2.50
2023-02-14T05:47:40.052Z,2.43
2023-02-14T05:50:08.259Z,2.49
2023-02-14T05:52:35.943Z,2.53
2023-02-14T05:55:04.211Z,2.74
2023-02-14T05:57:31.715Z,2.81
2023-02-14T05:59:59.120Z,2.76
2023-02-14T06:02:26.502Z,2.60
2023-02-14T06:04:53.894Z,2.51
2023-02-14T06:07:21.330Z,2.44
2023-02-14T06:09:48.666Z,2.24
2023-02-14T06:12:16.200Z,2.15
2023-02-14T06:14:45.141Z,2.07
2023-02-14T06:17:12.487Z,2.13
2023-02-14T06:19:39.843Z,2.07
2023-02-14T06:22:07.245Z,2.03
2023-02-14T06:24:34.617Z,1.99
2023-02-14T06:27:01.944Z,2.00
2023-02-14T06:29:29.355Z,1.76
2023-02-14T06:31:56.803Z,1.91
2023-02-14T06:34:24.242Z,2.05
2023-02-14T06:36:51.610Z,2.12
2023-02-14T06:39:19.085Z,2.25
2023-02-14T06:41:46.413Z,1.97
2023-02-14T06:44:13.778Z,1.98
2023-02-14T06:46:41.191Z,1.85
2023-02-14T06:49:10.047Z,2.06
2023-02-14T06:51:37.386Z,2.05
2023-02-14T06:54:04.736Z,2.18
2023-02-14T06:56:32.356Z,2.16
2023-02-14T06:58:59.689Z,2.43
2023-02-14T07:01:27.081Z,2.49
2023-02-14T07:03:54.469Z,2.37
2023-02-14T07:06:21.953Z,2.40
2023-02-14T07:08:49.277Z,2.36
2023-02-14T07:11:16.614Z,2.48
2023-02-14T07:13:44.254Z,2.38
2023-02-14T07:16:11.801Z,2.72
2023-02-14T07:18:39.311Z,2.84
2023-02-14T07:21:07.008Z,3.00
2023-02-14T07:23:34.452Z,2.94
2023-02-14T07:26:02.071Z,3.00
2023-02-14T07:28:30.482Z,3.09
2023-02-14T07:31:01.793Z,3.15
2023-02-14T07:33:29.590Z,3.29
2023-02-14T07:35:56.960Z,3.35
2023-02-14T07:38:24.846Z,3.38
2023-02-14T07:40:54.011Z,3.44
2023-02-14T07:43:21.428Z,3.55
2023-02-14T07:45:48.945Z,3.61
2023-02-14T07:48:16.351Z,3.72
2023-02-14T07:50:43.867Z,3.74
2023-02-14T07:53:11.516Z,3.68
2023-02-14T07:55:40.609Z,3.79
2023-02-14T07:58:08.008Z,3.92
2023-02-14T08:00:35.538Z,3.94
2023-02-14T08:03:02.950Z,4.07
2023-02-14T08:05:30.480Z,4.19
2023-02-14T08:07:57.881Z,4.27
2023-02-14T08:10:25.366Z,4.27
2023-02-14T08:13:01.558Z,4.32
2023-02-14T08:15:50.909Z,4.45
2023-02-14T08:18:19.893Z,4.73
2023-02-14T08:20:51.148Z,4.74
2023-02-14T08:23:19.832Z,5.04
2023-02-14T08:25:51.337Z,6.00
2023-02-14T08:28:22.244Z,7.23
2023-02-14T08:30:50.409Z,7.88
2023-02-14T08:33:18.510Z,7.90
2023-02-14T08:35:46.319Z,9.48
2023-02-14T08:38:13.748Z,10.66
2023-02-14T08:40:41.715Z,11.62
2023-02-14T08:43:09.617Z,11.89
2023-02-14T08:45:37.650Z,10.81
2023-02-14T08:48:08.483Z,11.44
2023-02-14T08:50:37.513Z,12.41
2023-02-14T08:53:12.551Z,12.28
2023-02-14T08:55:40.426Z,11.76
2023-02-14T08:58:08.491Z,12.68
2023-02-14T09:00:36.326Z,12.85
2023-02-14T09:03:03.951Z,12.39
2023-02-14T09:05:31.392Z,12.41
2023-02-14T09:07:59.718Z,13.02
2023-02-14T09:10:28.448Z,13.49
2023-02-14T09:12:56.072Z,13.55
2023-02-14T09:15:23.533Z,12.26
2023-02-14T09:17:52.029Z,11.59
2023-02-14T09:20:19.650Z,11.03
2023-02-14T09:22:48.750Z,10.26
2023-02-14T09:25:17.433Z,9.94
2023-02-14T09:27:44.900Z,9.82
2023-02-14T09:30:13.244Z,9.43
2023-02-14T09:32:40.605Z,9.52
2023-02-14T09:35:08.241Z,9.45
2023-02-14T09:37:54.129Z,9.17
2023-02-14T09:40:21.984Z,9.36
2023-02-14T09:43:11.778Z,9.00
2023-02-14T09:45:40.306Z,9.10
2023-02-14T09:48:28.262Z,9.30
2023-02-14T09:51:05.364Z,9.17
2023-02-14T09:53:35.551Z,9.30
2023-02-14T09:56:17.144Z,9.15
2023-02-14T09:58:49.895Z,9.17
2023-02-14T10:01:33.192Z,9.30
2023-02-14T10:04:21.418Z,9.45
2023-02-14T10:06:52.597Z,9.68
2023-02-14T10:09:38.654Z,9.62
2023-02-14T10:12:23.060Z,9.63
2023-02-14T10:14:53.309Z,9.59
2023-02-14T10:17:44.801Z,9.79
2023-02-14T10:20:24.137Z,9.88
2023-02-14T10:23:02.005Z,9.84
2023-02-14T10:25:39.063Z,10.04
2023-02-14T10:28:12.159Z,10.17
2023-02-14T10:30:45.357Z,10.20
2023-02-14T10:33:22.815Z,10.29
2023-02-14T10:36:16.956Z,10.21
2023-02-14T10:39:03.411Z,10.43
2023-02-14T10:41:49.259Z,10.47
2023-02-14T10:44:30.663Z,10.64
2023-02-14T10:47:10.224Z,10.87
2023-02-14T10:49:49.765Z,11.11
2023-02-14T10:52:35.004Z,11.26
2023-02-14T10:55:31.392Z,11.23
2023-02-14T10:58:04.179Z,11.36
2023-02-14T11:00:37.657Z,11.49
2023-02-14T11:03:08.762Z,11.53
2023-02-14T11:05:46.483Z,11.54
2023-02-14T11:08:18.635Z,11.49
2023-02-14T11:10:46.520Z,11.34
2023-02-14T11:13:34.613Z,11.72
2023-02-14T11:16:05.923Z,11.80
2023-02-14T11:18:36.117Z,11.79
2023-02-14T11:21:08.683Z,11.69
2023-02-14T11:23:49.973Z,11.92
2023-02-14T11:26:23.788Z,12.12
2023-02-14T11:28:58.038Z,12.10
2023-02-14T11:31:31.421Z,11.82
2023-02-14T11:34:01.927Z,11.93
2023-02-14T11:36:31.648Z,11.99
2023-02-14T11:39:17.072Z,11.92
2023-02-14T11:41:53.095Z,12.20
2023-02-14T11:44:24.148Z,12.22
2023-02-14T11:46:54.039Z,12.29
2023-02-14T11:49:30.912Z,12.36
2023-02-14T11:52:10.228Z,12.55
2023-02-14T11:54:44.847Z,12.76
2023-02-14T11:57:23.465Z,12.97
2023-02-14T11:59:54.258Z,12.83
2023-02-14T12:02:44.424Z,13.07
2023-02-14T12:05:29.351Z,13.12
2023-02-14T12:08:08.189Z,12.96
2023-02-14T12:10:37.466Z,13.20
2023-02-14T12:13:07.789Z,13.06
2023-02-14T12:15:40.841Z,12.92
2023-02-14T12:18:20.274Z,13.04
2023-02-14T12:20:53.359Z,13.25
2023-02-14T12:23:56.256Z,12.99
2023-02-14T12:26:33.071Z,13.10
2023-02-14T12:29:26.491Z,13.12
2023-02-14T12:31:59.190Z,13.33
2023-02-14T12:34:27.320Z,13.38
2023-02-14T12:37:12.515Z,13.21
2023-02-14T12:39:47.839Z,13.37
2023-02-14T12:42:44.984Z,13.39
2023-02-14T12:45:37.193Z,13.44
2023-02-14T12:48:38.342Z,13.39
2023-02-14T12:51:21.744Z,13.40
2023-02-14T12:54:27.082Z,13.44
2023-02-14T12:57:21.559Z,13.56
2023-02-14T12:59:57.862Z,13.62
2023-02-14T13:02:28.111Z,13.75
2023-02-14T13:05:06.795Z,13.59
2023-02-14T13:07:38.230Z,13.69
2023-02-14T13:10:21.247Z,13.79
2023-02-14T13:13:27.485Z,14.00
2023-02-14T13:16:22.115Z,13.93
2023-02-14T13:19:13.623Z,14.08
2023-02-14T13:21:42.955Z,14.20
2023-02-14T13:24:40.856Z,13.96
2023-02-14T13:27:14.306Z,14.10
2023-02-14T13:29:49.117Z,14.03
2023-02-14T13:32:21.777Z,14.15
2023-02-14T13:34:50.175Z,14.12
2023-02-14T13:37:22.012Z,14.08
2023-02-14T13:39:55.454Z,14.11
2023-02-14T13:42:50.598Z,14.25
2023-02-14T13:45:40.359Z,14.16
2023-02-14T13:48:20.432Z,13.99
2023-02-14T13:51:04.504Z,14.18
2023-02-14T13:53:34.997Z,14.16
2023-02-14T13:56:17.100Z,14.12
2023-02-14T13:58:56.299Z,13.88
2023-02-14T14:01:48.283Z,14.04
2023-02-14T14:04:31.950Z,14.00
2023-02-14T14:07:05.259Z,14.01
2023-02-14T14:09:42.013Z,14.13
2023-02-14T14:12:24.679Z,14.20
2023-02-14T14:15:06.972Z,14.24
2023-02-14T14:17:38.364Z,14.16
2023-02-14T14:20:20.544Z,14.17
2023-02-14T14:22:53.181Z,14.22
2023-02-14T14:25:41.659Z,14.04
2023-02-14T14:28:18.350Z,14.03
2023-02-14T14:30:46.383Z,13.91
2023-02-14T14:33:13.813Z,14.12
2023-02-14T14:36:04.085Z,14.14
2023-02-14T14:38:34.148Z,14.16
2023-02-14T14:41:02.624Z,14.11
2023-02-14T14:43:36.477Z,14.15
2023-02-14T14:46:07.808Z,14.21
2023-02-14T14:48:45.642Z,14.02
2023-02-14T14:51:24.209Z,14.05
2023-02-14T14:54:03.435Z,13.94
2023-02-14T14:56:37.368Z,13.92
2023-02-14T14:59:17.188Z,14.10
2023-02-14T15:01:45.099Z,14.08
2023-02-14T15:04:26.240Z,14.04
2023-02-14T15:06:55.975Z,14.06
2023-02-14T15:09:31.786Z,13.97
2023-02-14T15:12:21.441Z,13.97
2023-02-14T15:14:54.601Z,14.04
2023-02-14T15:17:27.033Z,13.88
2023-02-14T15:19:58.782Z,13.80
2023-02-14T15:22:30.185Z,13.94
2023-02-14T15:24:58.191Z,13.86
2023-02-14T15:27:27.351Z,13.79
2023-02-14T15:29:57.298Z,13.69
2023-02-14T15:32:27.763Z,13.68
2023-02-14T15:35:00.932Z,13.67
2023-02-14T15:37:28.768Z,13.62
2023-02-14T15:39:57.154Z,13.51
2023-02-14T15:42:40.304Z,13.48
2023-02-14T15:45:25.502Z,13.38
2023-02-14T15:47:59.137Z,13.48
2023-02-14T15:50:32.307Z,13.36
2023-02-14T15:53:09.092Z,13.28
2023-02-14T15:55:36.962Z,13.33
2023-02-14T15:58:11.492Z,13.26
2023-02-14T16:00:39.036Z,13.09
2023-02-14T16:03:12.111Z,13.26
2023-02-14T16:05:47.196Z,13.14
2023-02-14T16:08:34.649Z,13.11
2023-02-14T16:11:13.676Z,13.03
2023-02-14T16:13:43.800Z,12.86
2023-02-14T16:16:12.902Z,12.79
2023-02-14T16:18:49.557Z,12.73
2023-02-14T16:21:19.935Z,12.69
2023-02-14T16:24:10.592Z,12.58
2023-02-14T16:26:42.517Z,12.47
2023-02-14T16:29:16.078Z,12.41
2023-02-14T16:32:22.131Z,12.30
2023-02-14T16:34:40.142Z,12.22
2023-02-14T16:37:20.767Z,12.16
2023-02-14T16:40:06.804Z,12.06
2023-02-14T16:42:36.941Z,11.95
2023-02-14T16:45:04.532Z,11.80
2023-02-14T16:47:31.872Z,11.74
2023-02-14T16:49:59.198Z,11.65
2023-02-14T16:52:28.557Z,11.60
2023-02-14T16:54:55.955Z,11.55
2023-02-14T16:57:28.259Z,11.47
2023-02-14T16:59:56.607Z,11.41
2023-02-14T17:02:26.354Z,11.35
2023-02-14T17:04:54.671Z,11.35
2023-02-14T17:07:22.286Z,11.27
2023-02-14T17:09:59.162Z,11.14
2023-02-14T17:12:30.800Z,11.10
2023-02-14T17:15:02.698Z,11.01
2023-02-14T17:17:30.845Z,10.97
2023-02-14T17:19:58.436Z,10.92
2023-02-14T17:22:25.750Z,10.91
2023-02-14T17:24:53.068Z,10.79
2023-02-14T17:27:20.584Z,10.81
2023-02-14T17:29:51.672Z,10.72
2023-02-14T17:32:19.220Z,10.67
2023-02-14T17:34:46.644Z,10.68
2023-02-14T17:37:14.036Z,10.62
2023-02-14T17:39:41.581Z,10.59
2023-02-14T17:42:11.668Z,10.59
2023-02-14T17:44:39.630Z,10.43
2023-02-14T17:47:07.134Z,10.38
2023-02-14T17:49:34.519Z,10.36
2023-02-14T17:52:01.893Z,10.37
2023-02-14T17:54:29.310Z,10.31
2023-02-14T17:56:56.720Z,10.36
2023-02-14T17:59:24.325Z,10.38
2023-02-14T18:01:51.772Z,10.32
2023-02-14T18:04:19.171Z,10.27
2023-02-14T18:06:46.572Z,10.32
2023-02-14T18:09:14.150Z,10.28
2023-02-14T18:11:42.324Z,10.27
2023-02-14T18:14:10.312Z,10.18
2023-02-14T18:16:40.439Z,10.11
2023-02-14T18:19:10.042Z,10.06
2023-02-14T18:21:40.008Z,9.99
2023-02-14T18:24:09.077Z,9.93
2023-02-14T18:26:38.590Z,9.91
2023-02-14T18:29:06.818Z,9.78
2023-02-14T18:31:39.388Z,9.77
2023-02-14T18:34:07.539Z,9.69
2023-02-14T18:36:44.998Z,9.68
2023-02-14T18:39:12.578Z,9.62
2023-02-14T18:41:40.129Z,9.60
2023-02-14T18:44:07.604Z,9.55
2023-02-14T18:46:36.448Z,9.51
2023-02-14T18:49:07.059Z,9.46
2023-02-14T18:51:39.046Z,9.44
2023-02-14T18:54:06.915Z,9.36
2023-02-14T18:56:36.520Z,9.30
2023-02-14T18:59:06.608Z,9.22
2023-02-14T19:01:39.811Z,9.17
2023-02-14T19:04:08.934Z,9.13
2023-02-14T19:06:36.648Z,9.12
2023-02-14T19:09:09.401Z,9.15
2023-02-14T19:11:36.707Z,9.15
2023-02-14T19:14:09.885Z,9.04
2023-02-14T19:16:43.894Z,9.00
2023-02-14T19:19:11.390Z,8.96
2023-02-14T19:21:38.729Z,8.87
2023-02-14T19:24:07.198Z,8.84
2023-02-14T19:26:40.140Z,8.83
2023-02-14T19:29:10.742Z,8.75
2023-02-14T19:31:40.850Z,8.73
2023-02-14T19:34:14.890Z,8.69
2023-02-14T19:36:46.728Z,8.60
2023-02-14T19:39:15.264Z,8.58
2023-02-14T19:41:43.010Z,8.56
2023-02-14T19:44:13.893Z,8.53
2023-02-14T19:46:42.904Z,8.60
2023-02-14T19:49:18.998Z,8.50
2023-02-14T19:51:48.113Z,8.76
2023-02-14T19:54:15.896Z,8.82
2023-02-14T19:56:45.573Z,8.92
2023-02-14T19:59:19.604Z,9.03
2023-02-14T20:01:49.939Z,9.15
2023-02-14T20:04:26.257Z,9.07
2023-02-14T20:06:54.894Z,8.99
2023-02-14T20:09:23.195Z,8.95
2023-02-14T20:11:55.204Z,9.10
2023-02-14T20:14:47.138Z,9.06
2023-02-14T20:17:19.381Z,8.96
2023-02-14T20:19:46.881Z,8.83
2023-02-14T20:22:14.345Z,8.89
2023-02-14T20:24:41.741Z,8.97
2023-02-14T20:27:09.235Z,8.97
2023-02-14T20:29:38.863Z,8.78
2023-02-14T20:32:06.541Z,8.67
2023-02-14T20:34:33.996Z,8.65
2023-02-14T20:37:01.647Z,8.44
2023-02-14T20:39:31.541Z,8.32
2023-02-14T20:42:02.601Z,8.34
2023-02-14T20:44:31.252Z,8.35
2023-02-14T20:46:59.626Z,8.27
2023-02-14T20:49:30.521Z,8.21
2023-02-14T20:51:59.108Z,8.21
2023-02-14T20:54:28.403Z,8.11
2023-02-14T20:56:55.981Z,7.96
2023-02-14T20:59:27.021Z,7.80
2023-02-14T21:01:59.593Z,7.78
2023-02-14T21:04:28.418Z,7.73
2023-02-14T21:06:58.907Z,7.69
2023-02-14T21:09:27.117Z,7.74
2023-02-14T21:11:55.916Z,7.81
2023-02-14T21:14:23.367Z,7.64
2023-02-14T21:16:52.088Z,7.65
2023-02-14T21:19:20.795Z,7.61
2023-02-14T21:21:48.533Z,7.60
2023-02-14T21:24:17.528Z,7.43
2023-02-14T21:26:45.864Z,7.34
2023-02-14T21:29:17.146Z,7.29
2023-02-14T21:31:44.712Z,7.13
2023-02-14T21:34:16.173Z,7.30
2023-02-14T21:36:43.824Z,7.25
2023-02-14T21:39:11.408Z,7.30
2023-02-14T21:41:38.842Z,7.25
2023-02-14T21:44:06.784Z,7.21
2023-02-14T21:46:38.424Z,7.17
2023-02-14T21:49:25.518Z,7.16
2023-02-14T21:51:56.778Z,7.08
2023-02-14T21:54:24.188Z,6.98
2023-02-14T21:56:51.559Z,6.91
2023-02-14T21:59:19.013Z,6.93
2023-02-14T22:01:46.580Z,6.94
2023-02-14T22:04:14.107Z,6.78
2023-02-14T22:06:42.557Z,6.70
2023-02-14T22:09:12.699Z,6.50
2023-02-14T22:11:40.359Z,6.55
2023-02-14T22:14:07.970Z,6.47
2023-02-14T22:16:36.901Z,6.23
2023-02-14T22:19:06.138Z,6.30
2023-02-14T22:21:33.931Z,6.28
2023-02-14T22:24:01.575Z,6.18
2023-02-14T22:26:33.820Z,6.15
2023-02-14T22:29:02.483Z,6.02
2023-02-14T22:31:34.120Z,6.09
2023-02-14T22:34:01.479Z,5.95
2023-02-14T22:36:29.990Z,5.95
2023-02-14T22:38:57.506Z,5.91
2023-02-14T22:41:25.477Z,5.65
2023-02-14T22:43:53.960Z,5.65
2023-02-14T22:46:26.804Z,5.50
2023-02-14T22:48:55.905Z,5.71
2023-02-14T22:51:32.656Z,5.82
2023-02-14T22:54:13.486Z,6.03
2023-02-14T22:56:49.784Z,6.03
2023-02-14T22:59:18.416Z,6.02
2023-02-14T23:01:47.460Z,6.01
2023-02-14T23:04:21.659Z,6.00
2023-02-14T23:06:50.590Z,5.97
2023-02-14T23:09:19.167Z,5.85
2023-02-14T23:11:47.364Z,5.82
2023-02-14T23:14:35.917Z,5.92
2023-02-14T23:17:18.903Z,5.88
2023-02-14T23:20:05.587Z,5.96
2023-02-14T23:22:36.117Z,5.86
2023-02-14T23:25:08.162Z,5.82
2023-02-14T23:27:43.016Z,5.84
2023-02-14T23:30:14.103Z,5.72
2023-02-14T23:32:41.949Z,5.79
2023-02-14T23:35:10.071Z,5.66
2023-02-14T23:37:38.441Z,5.63
2023-02-14T23:40:06.837Z,5.38
2023-02-14T23:42:34.294Z,5.46
2023-02-14T23:45:23.767Z,5.57
2023-02-14T23:47:52.061Z,5.63
2023-02-14T23:50:19.492Z,5.66
2023-02-14T23:52:47.359Z,5.58
2023-02-14T23:55:15.002Z,5.44
2023-02-14T23:57:42.552Z,5.41
